WetterOnline ( https://www.wetteronline.de )

Wetter aktuell Mertendorf

Aktuelles Wetter: Osterfeld (246m)

6-stündlich | Neueste Meldungen
Ortszeit Temperatur Wetter
Mo, 21.06. 14:00 26.8° C wolkenlos
Mo, 21.06. 8:00 19.5° C wolkenlos
Mo, 21.06. 2:00 20.5° C Sprühregen
So, 20.06. 20:00 25.0° C wolkig
So, 20.06. 14:00 28.8° C bedeckt
So, 20.06. 8:00 23.6° C bewölkt
So, 20.06. 2:00 22.4° C wolkenlos
Sa, 19.06. 20:00 29.6° C leicht bewölkt
Ortszeit Temperatur Wetter
Mo, 21.06. 19:10 25.4° C wolkenlos
Mo, 21.06. 19:00 25.9° C wolkenlos
Mo, 21.06. 18:50 25.9° C wolkenlos
Mo, 21.06. 18:40 25.8° C wolkenlos
Mo, 21.06. 18:30 25.9° C fast wolkenlos
Mo, 21.06. 18:20 25.9° C fast wolkenlos
Mo, 21.06. 18:00 26.3° C leicht bewölkt
Mo, 21.06. 17:30 26.0° C leicht bewölkt
Mo, 21.06. 17:00 26.7° C wolkenlos
Mo, 21.06. 16:30 27.1° C fast wolkenlos
Mo, 21.06. 16:00 26.4° C leicht bewölkt
Ortszeit Relative Feuchte Sichtweite
Mo, 21.06. 14:00 48% 11 km
Mo, 21.06. 8:00 88% 11 km
Mo, 21.06. 2:00 92% 11 km
So, 20.06. 20:00 66% 11 km
So, 20.06. 14:00 47% 11 km
So, 20.06. 8:00 67% 11 km
So, 20.06. 2:00 75% 11 km
Sa, 19.06. 20:00 58% 11 km
Ortszeit Relative Feuchte Sichtweite
Mo, 21.06. 19:10 52% -
Mo, 21.06. 19:00 52% 11 km
Mo, 21.06. 18:50 52% -
Mo, 21.06. 18:40 52% -
Mo, 21.06. 18:30 53% 11 km
Mo, 21.06. 18:20 53% -
Mo, 21.06. 18:00 49% 11 km
Mo, 21.06. 17:30 48% 11 km
Mo, 21.06. 17:00 50% 11 km
Mo, 21.06. 16:30 48% 11 km
Mo, 21.06. 16:00 50% 11 km
Ortszeit Niederschlagsmenge Niederschlagsart
Mo, 21.06. 14:00 0.0 l/m2 in 6 Std. -
Mo, 21.06. 8:00 14 l/m2 in 12 Std. Regenschauer
Mo, 21.06. 2:00 0.4 l/m2 in 6 Std. Regen
So, 20.06. 20:00 0.1 l/m2 in 12 Std. Regen
So, 20.06. 14:00 0.0 l/m2 in 6 Std. -
So, 20.06. 8:00 0.0 l/m2 in 12 Std. -
So, 20.06. 2:00 0.0 l/m2 in 6 Std. -
Sa, 19.06. 20:00 0.0 l/m2 in 12 Std. -
Ortszeit Niederschlagsmenge Niederschlagsart
Mo, 21.06. 19:10 keine Meldung -
Mo, 21.06. 19:00 0.0 l/m2 in 1 Std. -
Mo, 21.06. 18:50 keine Meldung -
Mo, 21.06. 18:40 keine Meldung -
Mo, 21.06. 18:30 0.0 l/m2 in 1 Std. -
Mo, 21.06. 18:20 keine Meldung -
Mo, 21.06. 18:00 0.0 l/m2 in 1 Std. -
Mo, 21.06. 17:30 0.0 l/m2 in 1 Std. -
Mo, 21.06. 17:00 0.0 l/m2 in 1 Std. -
Mo, 21.06. 16:30 0.0 l/m2 in 1 Std. -
Mo, 21.06. 16:00 0.0 l/m2 in 1 Std. -
Ortszeit Stärke Spitze Richtung
km/h Bft. km/h Grad Sektor
Mo, 21.06. 14:00 13 3 37 210° SW
Mo, 21.06. 8:00 17 3 63 210° SW
Mo, 21.06. 2:00 13 3 33 80° O
So, 20.06. 20:00 4 1 22 270° W
So, 20.06. 14:00 11 2 32 210° SW
So, 20.06. 8:00 15 3 26 170° S
So, 20.06. 2:00 4 1 14 150° SO
Sa, 19.06. 20:00 4 1 22 350° N
Ortszeit Stärke Spitze Richtung
km/h Bft. km/h Grad Sektor
Mo, 21.06. 19:10 14 3 - 290° W
Mo, 21.06. 19:00 11 2 25 290° W
Mo, 21.06. 18:50 11 2 - 290° W
Mo, 21.06. 18:40 17 3 - 290° W
Mo, 21.06. 18:30 14 3 25 290° W
Mo, 21.06. 18:20 14 3 - 290° W
Mo, 21.06. 18:00 13 3 28 280° W
Mo, 21.06. 17:30 15 3 28 280° W
Mo, 21.06. 17:00 13 3 33 250° W
Mo, 21.06. 16:30 17 3 33 250° W
Mo, 21.06. 16:00 14 3 29 270° W
Ortszeit Untergrenze Bedeckung Gattung
total tief tief mittel hoch
Mo, 21.06. 14:00 - 0/8 0/8 - - -
Mo, 21.06. 8:00 - 0/8 0/8 - - -
Mo, 21.06. 2:00 1800 m 7/8 5/8 - - -
So, 20.06. 20:00 1380 m 7/8 1/8 - - -
So, 20.06. 14:00 5100 m 8/8 8/8 - - -
So, 20.06. 8:00 3600 m 7/8 7/8 - - -
So, 20.06. 2:00 - 0/8 0/8 - - -
Sa, 19.06. 20:00 8400 m 6/8 0/8 - - -
Ortszeit Bedeckungsgrad in Achtel und Wolkenuntergrenze
Mo, 21.06. 19:10 keine Wolken
Mo, 21.06. 19:00 keine Wolken
Mo, 21.06. 18:50 keine Wolken
Mo, 21.06. 18:40 keine Wolken
Mo, 21.06. 18:30 1(12000m)
Mo, 21.06. 18:20 1(12000m)
Mo, 21.06. 18:00 1(1500m) 1(12000m)
Mo, 21.06. 17:30 2(1500m) 3(12000m)
Mo, 21.06. 17:00 1(12000m)
Mo, 21.06. 16:30 1(10500m)
Mo, 21.06. 16:00 2(1500m)
Ortszeit Luftdruck NN (hPa) Tendenz (hPa in 3 Std.)
Mo, 21.06. 14:00 1006 + 0,1
Mo, 21.06. 8:00 1006 + 1,0
Mo, 21.06. 2:00 1008 + 1,2
So, 20.06. 20:00 1008 - 0,4
So, 20.06. 14:00 1009 - 0,5
So, 20.06. 8:00 1009 - 0,5
So, 20.06. 2:00 1011 - 0,9
Sa, 19.06. 20:00 1011 - 0,7
Ortszeit Luftdruck NN (hPa) Tendenz (hPa in 3 Std.)
Mo, 21.06. 19:10 1007 keine Meldung
Mo, 21.06. 19:00 1007 + 0,5
Mo, 21.06. 18:50 1007 keine Meldung
Mo, 21.06. 18:40 1007 keine Meldung
Mo, 21.06. 18:30 1007 + 0,3
Mo, 21.06. 18:20 1007 keine Meldung
Mo, 21.06. 18:00 1007 + 0,5
Mo, 21.06. 17:30 1007 + 0,3
Mo, 21.06. 17:00 1006 + 0,1
Mo, 21.06. 16:30 1006 0,0
Mo, 21.06. 16:00 1006 - 0,2
Ortszeit Schneehöhe (cm)
Mo, 21.06. 14:00 -
Mo, 21.06. 8:00 -
Mo, 21.06. 2:00 -
So, 20.06. 20:00 -
So, 20.06. 14:00 -
So, 20.06. 8:00 -
So, 20.06. 2:00 -
Sa, 19.06. 20:00 -
Ortszeit Schneehöhe (cm)
Mo, 21.06. 19:10 -
Mo, 21.06. 19:00 -
Mo, 21.06. 18:50 -
Mo, 21.06. 18:40 -
Mo, 21.06. 18:30 -
Mo, 21.06. 18:20 -
Mo, 21.06. 18:00 -
Mo, 21.06. 17:30 -
Mo, 21.06. 17:00 -
Mo, 21.06. 16:30 -
Mo, 21.06. 16:00 -
Link zu dieser Seite / Seite empfehlen

Das Wetter in ...